Pagrindinis puslapis
METAR-TAF:

METAR-TAF

Oro uostai :

Olbija, Italija

platuma: 40-54N, ilguma: 009-31E, Aukštis: 11 m

Dabartinis oras

Ataskaita buvo paskelbta 22 minutes, ne 16:50 UTC
Vėjas 8 kt iš Rytų/Šiaurės Rytų, svyruoja nuo Šiaurės Rytų ir Rytų
Temperatūra 19°C
Drėgmė 56%
Slėgis 1014 hPa
Matomumas 10 km arba daugiau
Mažai debesys ne aukštis 3000 ft

METAR: LIEO 301650Z 07008KT 040V100 9999 FEW030 19/10 Q1014

Laikas: 19:12 (17:12 UTC)

Prognozė

Ataskaita buvo paskelbta 6 valandos ir 12 minutes, ne 11:00 UTC
Prognozė galioja nuo 30 metu 12 UTC su 31 metu 12 UTC
Vėjas 8 kt iš Šiaurės Rytų
Matomumas 10 km arba daugiau
Išsisklaidę debesys ne aukštis 3000 ft

TAF: LIEO 301100Z 3012/3112 04008KT 9999 SCT030

Orai ataskaitas ir orų prognozės (METAR, TAF).

turimą stotys yra geltonos ir raudonos taškus žemėlapyje.

Perkelti pele per norėdami pamatyti stoties vardą.

Tada spustelėkite, norėdami matyti oro stebėjimo ir prognozės.

Norėdami pakeisti žemėlapį: spustelėkite ant žalios mygtukų su juodo kryžiaus žemyn,; žalią mygtuką su brūkšneliu, jei norite nutolinti; arba žalių rodyklių gretimoms žemėlapius.


METAR-TAF: